• Join FlightAware (Why Join?)
  • Login
  • US Flag 
04:16AM EDT


 

Airport Tracker/Info


-or-


 

Live Flight TrackerFlight Track Log ✈ N5051S ✈ 05-Oct-2013 ✈ KAUG - KALB

Flight Track Log - Related Links

Times and Time Zones

All times are in EDT time to prevent confusion due to time zone crossing. See the N5051S flight status page for this flight to view local times or setup timezone preferences in your user account.

Time Position Orientation Groundspeed Altitude Reporting Facility
EDT Latitude Longitude Course Direction KTS MPH feet Rate Location/Type
10:45AM 44.2395 -70.0186 244° Southwest  Level Estimated
10:46AM 44.2258 -70.0554 243° Southwest  Level FlightAware Approximate
10:47AM 44.2122 -70.0921 243° Southwest  Level FlightAware Approximate
10:48AM 44.1984 -70.1289 243° Southwest  Level FlightAware Approximate
10:49AM 44.1847 -70.1656 242° Southwest  Level FlightAware Approximate
10:50AM 44.1710 -70.2022 242° Southwest  Level FlightAware Approximate
10:51AM 44.1573 -70.2389 242° Southwest  Level FlightAware Approximate
10:52AM 44.1436 -70.2756 242° Southwest  Level FlightAware Approximate
10:53AM 44.1298 -70.3122 242° Southwest  Level FlightAware Approximate
10:54AM 44.1160 -70.3488 242° Southwest  Level FlightAware Approximate
10:55AM 44.1022 -70.3854 242° Southwest  Level FlightAware Approximate
10:56AM 44.0885 -70.4220 242° Southwest  Level FlightAware Approximate
10:56AM 43.8000 -71.0333 242° Southwest 125 144 6,000  Level KA90
10:57AM 44.0746 -70.4585 242° Southwest  Level FlightAware Approximate
10:57AM 43.7833 -71.0833 245° Southwest 124 143 6,000  Level KA90
10:58AM 44.0608 -70.4951 242° Southwest  Level FlightAware Approximate
10:58AM 43.7667 -71.1333 245° Southwest 126 145 6,000  Level KA90
10:59AM 44.0470 -70.5316 242° Southwest  Level FlightAware Approximate
10:59AM 43.7500 -71.1667 235° Southwest 126 145 6,000  Level KA90
11:00AM 44.0332 -70.5681 242° Southwest  Level FlightAware Approximate
11:00AM 43.7333 -71.2167 245° Southwest 124 143 6,000  Level KA90
11:01AM 44.0193 -70.6046 242° Southwest  Level FlightAware Approximate
11:01AM 43.7167 -71.2500 235° Southwest 124 143 6,000  Level KA90
11:02AM 43.7000 -71.3000 245° Southwest 123 142 6,000  Level KA90
11:03AM 43.6833 -71.3333 235° Southwest 124 143 6,000  Level KA90
11:04AM 43.6667 -71.3833 245° Southwest 125 144 6,000  Level KA90
11:05AM 43.6500 -71.4333 245° Southwest 124 143 6,000  Level KA90
11:06AM 43.6333 -71.4667 235° Southwest 127 146 6,000  Level KA90
11:07AM 43.6167 -71.5167 245° Southwest 125 144 6,000  Level KA90
11:08AM 43.6078 -71.5597 254° West 124 143 6,000  Level Boston Center
11:09AM 43.5914 -71.6003 241° Southwest 124 143 6,000  Level Boston Center
11:10AM 43.5772 -71.6433 246° West 124 143 6,000  Level Boston Center
11:11AM 43.5608 -71.6836 241° Southwest 124 143 6,000  Level Boston Center
11:12AM 43.5444 -71.7242 241° Southwest 124 143 6,000  Level Boston Center
11:13AM 43.5300 -71.7672 245° Southwest 124 143 6,000  Level Boston Center
11:14AM 43.5136 -71.8075 241° Southwest 124 143 6,000  Level Boston Center
11:15AM 43.4992 -71.8533 247° West 124 143 6,000  Level Boston Center
11:16AM 43.4828 -71.8936 241° Southwest 124 143 6,000  Level Boston Center
11:17AM 43.4683 -71.9339 244° Southwest 124 143 6,000  Level Boston Center
11:18AM 43.4539 -71.9767 245° Southwest 124 143 6,000  Level Boston Center
11:19AM 43.4375 -72.0228 244° Southwest 124 143 6,000  Level Boston Center
11:20AM 43.4208 -72.0628 240° Southwest 124 143 6,000  Level Boston Center
11:21AM 43.4064 -72.1000 242° Southwest 129 148 6,000  Level Boston Center
11:22AM 43.3878 -72.1458 241° Southwest 129 148 6,000  Level Boston Center
11:23AM 43.3756 -72.1858 247° West 129 148 6,100 240 Climbing Boston Center
11:24AM 43.3567 -72.2289 239° Southwest 123 142 6,600 480 Climbing Boston Center
11:25AM 43.3444 -72.2631 244° Southwest 117 135 7,100 180 Climbing Boston Center
11:26AM 43.3297 -72.3089 246° West 117 135 7,000 -60 Descending Boston Center
11:27AM 43.3131 -72.3517 242° Southwest 122 140 7,000  Level Boston Center
11:28AM 43.2967 -72.3944 242° Southwest 122 140 7,000  Level Boston Center
11:29AM 43.2800 -72.4372 242° Southwest 127 146 7,000  Level Boston Center
11:30AM 43.2633 -72.4800 242° Southwest 127 146 7,000  Level Boston Center
11:31AM 43.2464 -72.5228 241° Southwest 127 146 7,000  Level Boston Center
11:32AM 43.2319 -72.5656 245° Southwest 132 152 7,000  Level Boston Center
11:33AM 43.2153 -72.6081 242° Southwest 132 152 7,000  Level Boston Center
11:34AM 43.1983 -72.6508 241° Southwest 132 152 7,000  Level Boston Center
11:35AM 43.1836 -72.6906 243° Southwest 132 152 7,000  Level Boston Center
11:36AM 43.1692 -72.7275 242° Southwest 121 139 7,000  Level Boston Center
11:36AM 43.1692 -72.7306 270° West 132 152 7,000  Level Boston Center
11:37AM 43.1522 -72.7731 241° Southwest 132 152 7,000  Level Boston Center
11:37AM 43.1439 -72.7872 231° Southwest 123 142 7,000  Level Boston Center
11:38AM 43.1356 -72.8156 248° West 132 152 7,000  Level Boston Center
11:38AM 43.1311 -72.8269 242° Southwest 123 142 7,000  Level Boston Center
11:39AM 43.1208 -72.8583 246° West 132 152 7,000  Level Boston Center
11:39AM 43.1122 -72.8753 235° Southwest 122 140 7,000  Level Boston Center
11:40AM 43.1061 -72.8981 250° West 132 152 7,000  Level Boston Center
11:40AM 43.0956 -72.9119 224° Southwest 122 140 7,000  Level Boston Center
11:41AM 43.0892 -72.9375 251° West 132 152 7,000  Level Boston Center
11:41AM 43.0786 -72.9544 230° Southwest 123 142 7,000  Level Boston Center
11:42AM 43.0722 -72.9800 251° West 132 152 7,000  Level Boston Center
11:43AM 43.0639 -73.0028 243° Southwest 125 144 7,000  Level Boston Center
11:43AM 43.0556 -73.0197 236° Southwest 132 152 7,000  Level Boston Center
11:44AM 43.0447 -73.0481 242° Southwest 124 143 7,000  Level Boston Center
11:44AM 43.0406 -73.0564 236° Southwest 132 152 7,000  Level Boston Center
11:45AM 43.0258 -73.0933 241° Southwest 125 144 7,000  Level Boston Center
11:45AM 43.0236 -73.1019 251° West 132 152 7,000  Level Boston Center
11:46AM 43.0111 -73.1328 241° Southwest 126 145 7,000  Level Boston Center
11:46AM 43.0089 -73.1414 251° West 132 152 7,000 -240 Level Boston Center
11:47AM 42.9983 -73.1725 245° Southwest 127 146 6,800 -300 Descending Boston Center
11:47AM 42.9897 -73.1894 235° Southwest 138 159 6,700 -540 Descending Boston Center
11:48AM 42.9792 -73.2178 243° Southwest 133 153 6,300 -660 Descending Boston Center
11:48AM 42.9750 -73.2289 243° Southwest 138 159 6,100 -660 Descending Boston Center
11:48AM 42.9622 -73.2572 238° Southwest 136 157 5,700 -720 Descending Boston Center
11:49AM 42.9539 -73.2797 243° Southwest 138 159 5,400 -720 Descending Boston Center
11:49AM 42.9453 -73.2994 239° Southwest 136 157 5,100 -600 Descending Boston Center
11:50AM 42.9389 -73.3192 246° West 138 159 4,800 -600 Descending Boston Center
11:50AM 42.9303 -73.3419 243° Southwest 132 152 4,500 -540 Descending Boston Center
11:52AM 42.9092 -73.3953 242° Southwest 129 148 4,000 -300 Descending Boston Center
11:52AM 42.8942 -73.4264 237° Southwest 124 143 4,000  Level Boston Center
11:53AM 42.8792 -73.4658 243° Southwest 117 135 4,000  Level Boston Center
11:54AM 42.8603 -73.4994 233° Southwest 120 138 4,000  Level Boston Center
11:55AM 42.8392 -73.5358 232° Southwest 121 139 4,000  Level Boston Center
11:56AM 42.8136 -73.5694 224° Southwest 121 139 4,000  Level Boston Center
11:58AM 42.7883 -73.6114 231° Southwest 121 139 4,000 -120 Level Boston Center
11:58AM 42.7672 -73.6419 227° Southwest 121 139 3,800 -480 Descending Boston Center
11:59AM 42.7439 -73.6783 229° Southwest 134 154 3,100 -660 Descending Boston Center
12:00PM 42.7103 -73.6975 203° Southwest 134 154 2,500 -300 Descending Boston Center
12:02PM 42.7221 -73.7498 287° West  Level FlightAware Approximate
12:03PM 42.6431 -73.7414 287° West 126 145 2,300  Level Boston Center
12:03PM 42.6447 -73.7753 274° West 138 159 1,800 -480 Descending Boston Center
12:05PM 42.6800 -73.8014 331° Northwest 123 142 1,400 -420 Descending Boston Center
12:05PM 42.7069 -73.8047 355° North 104 120 1,000 -480 Descending Boston Center
12:06PM 42.7297 -73.8081 354° North 72 83 500 -540 Descending Boston Center
12:08PM 42.7491 -73.8020 59° Northeast  Level Estimated
12:15PM 42.7491 -73.8020 241° Southwest  Level Estimated
12:16PM 42.7491 -73.8020 241° Southwest  Level Estimated
12:17PM 42.7491 -73.8020 241° Southwest  Level Estimated